Time;durP1;ratioP1;P1;durP2;ratioP2;P2;SDS_P1;SDS_P2;PMS_P1;PMS_P2;Temp;Humidity;BMP_temperature;BMP_pressure;BME280_temperature;BME280_humidity;BME280_pressure;Samples;Min_cycle;Max_cycle;Signal;HPM_P1;HPM_P2
2021/12/13 00:01:56;;;;;;;9.57;7.85;;;11.20;99.90;;;;;;5118044;27;20047;-78
2021/12/13 00:04:24;;;;;;;11.90;8.50;;;11.10;99.90;;;;;;5137180;27;20137;-79
2021/12/13 00:06:54;;;;;;;11.00;7.20;;;11.10;99.90;;;;;;5136409;27;20153;-79
2021/12/13 00:09:24;;;;;;;12.95;7.55;;;11.10;99.90;;;;;;5137486;27;20042;-79
2021/12/13 00:11:57;;;;;;;11.55;8.30;;;11.10;99.90;;;;;;5118273;27;20047;-80
2021/12/13 00:14:35;;;;;;;12.32;7.15;;;11.10;99.90;;;;;;5137099;27;20102;-79
2021/12/13 00:17:25;;;;;;;17.10;8.13;;;11.10;99.90;;;;;;5119358;27;20146;-80
2021/12/13 00:20:27;;;;;;;15.13;8.68;;;11.10;99.90;;;;;;5117233;27;20050;-79
2021/12/13 00:22:56;;;;;;;11.93;6.53;;;11.10;99.90;;;;;;5087398;27;20395;-80
2021/12/13 00:25:26;;;;;;;14.55;8.10;;;11.00;99.90;;;;;;5125444;27;20746;-79
2021/12/13 00:28:04;;;;;;;12.00;8.18;;;11.10;99.90;;;;;;5137410;27;20175;-78
2021/12/13 00:30:40;;;;;;;15.55;8.20;;;11.10;99.90;;;;;;5119113;27;20681;-79
2021/12/13 00:33:40;;;;;;;12.98;9.27;;;11.10;99.90;;;;;;5136668;27;20150;-78
2021/12/13 00:36:14;;;;;;;14.32;9.05;;;11.10;99.90;;;;;;5117272;27;20053;-78
2021/12/13 00:38:57;;;;;;;15.80;9.20;;;11.10;99.90;;;;;;5135278;27;20049;-78
2021/12/13 00:41:28;;;;;;;13.20;8.30;;;11.10;99.90;;;;;;5118956;27;20838;-79
2021/12/13 00:44:02;;;;;;;14.95;9.38;;;11.10;99.90;;;;;;5118170;27;20072;-80
2021/12/13 00:46:29;;;;;;;15.93;9.10;;;11.10;99.90;;;;;;5137396;27;20085;-79
2021/12/13 00:48:57;;;;;;;12.65;8.32;;;11.10;99.90;;;;;;5118288;27;20037;-80
2021/12/13 00:51:26;;;;;;;15.88;9.20;;;11.10;99.90;;;;;;5137644;27;20043;-80
2021/12/13 00:53:55;;;;;;;19.13;8.95;;;11.10;99.90;;;;;;5137474;27;20537;-80
2021/12/13 00:57:07;;;;;;;18.60;10.00;;;11.10;99.90;;;;;;5118040;27;20046;-80
2021/12/13 00:59:40;;;;;;;17.27;10.68;;;11.10;99.90;;;;;;5119448;27;20153;-79
2021/12/13 01:02:30;;;;;;;25.23;11.68;;;11.10;99.90;;;;;;5136646;27;20112;-79
2021/12/13 01:05:10;;;;;;;22.20;12.07;;;11.10;99.90;;;;;;5119386;27;20061;-79
2021/12/13 01:07:47;;;;;;;20.25;13.05;;;11.10;99.90;;;;;;5138198;27;20047;-79
2021/12/13 01:11:03;;;;;;;27.33;13.30;;;11.10;99.90;;;;;;5136586;27;20107;-78
2021/12/13 01:13:29;;;;;;;24.50;13.35;;;11.10;99.90;;;;;;5135926;27;20154;-77
2021/12/13 01:16:47;;;;;;;32.88;16.00;;;11.10;99.90;;;;;;5121092;27;20064;-78
2021/12/13 01:22:20;;;;;;;35.88;18.35;;;11.10;99.90;;;;;;5138353;27;20077;-77
2021/12/13 01:27:26;;;;;;;32.72;17.45;;;11.10;99.90;;;;;;5138463;27;20050;-77
2021/12/13 01:29:52;;;;;;;25.92;16.35;;;11.10;99.90;;;;;;5120397;27;20050;-77
2021/12/13 01:32:18;;;;;;;38.13;17.67;;;11.10;99.90;;;;;;5142268;27;20814;-77
2021/12/13 01:34:46;;;;;;;30.25;17.08;;;11.10;99.90;;;;;;5138570;27;20054;-77
2021/12/13 01:37:16;;;;;;;29.52;15.98;;;11.10;99.90;;;;;;5138661;27;20066;-77
2021/12/13 01:39:45;;;;;;;31.15;16.88;;;11.10;99.90;;;;;;5119768;27;20047;-78
2021/12/13 01:42:21;;;;;;;29.45;15.40;;;11.10;99.90;;;;;;5139160;27;20223;-80
2021/12/13 01:44:51;;;;;;;27.33;14.50;;;11.10;99.90;;;;;;5143475;27;20134;-79
2021/12/13 01:47:30;;;;;;;24.25;13.35;;;11.10;99.90;;;;;;5143408;27;20072;-77
2021/12/13 01:50:18;;;;;;;24.73;12.35;;;11.10;99.90;;;;;;5119783;27;20053;-79
2021/12/13 01:52:46;;;;;;;26.50;13.68;;;11.10;99.90;;;;;;5142636;27;20039;-78
2021/12/13 01:55:26;;;;;;;19.40;12.18;;;11.10;99.90;;;;;;5124585;27;20057;-78
2021/12/13 01:58:26;;;;;;;24.17;12.82;;;11.10;99.90;;;;;;5124465;27;20076;-77
2021/12/13 02:01:21;;;;;;;17.05;10.70;;;11.10;99.90;;;;;;5142437;27;20119;-77
2021/12/13 02:03:54;;;;;;;16.02;10.75;;;11.10;99.90;;;;;;5143344;27;20046;-78
2021/12/13 02:06:29;;;;;;;17.05;11.25;;;11.10;99.90;;;;;;5143047;27;20043;-77
2021/12/13 02:08:58;;;;;;;17.58;12.15;;;11.10;99.90;;;;;;5147911;27;20091;-78
2021/12/13 02:11:32;;;;;;;21.27;10.35;;;11.10;99.90;;;;;;5152347;27;20838;-77
2021/12/13 02:14:11;;;;;;;12.75;10.10;;;11.10;99.90;;;;;;5142845;27;20050;-77
2021/12/13 02:16:57;;;;;;;13.80;8.27;;;11.10;99.90;;;;;;5145779;27;20040;-78
2021/12/13 02:19:32;;;;;;;15.60;8.85;;;11.10;99.90;;;;;;5124213;27;20123;-79
2021/12/13 02:22:09;;;;;;;12.48;8.27;;;11.00;99.90;;;;;;5142743;27;20054;-79
2021/12/13 02:24:37;;;;;;;14.40;8.55;;;11.00;99.90;;;;;;5142641;27;20095;-79
2021/12/13 02:27:07;;;;;;;14.43;10.02;;;11.10;99.90;;;;;;5145621;27;20057;-79
2021/12/13 02:29:37;;;;;;;14.70;8.95;;;11.10;99.90;;;;;;5142912;27;20058;-80
2021/12/13 02:32:07;;;;;;;13.45;8.55;;;11.10;99.90;;;;;;5124565;27;20051;-79
2021/12/13 02:34:36;;;;;;;13.75;7.72;;;11.10;99.90;;;;;;5142416;27;20219;-79
2021/12/13 02:37:03;;;;;;;14.10;9.32;;;11.10;99.90;;;;;;5143168;27;20069;-79
2021/12/13 02:39:33;;;;;;;15.40;8.95;;;11.00;99.90;;;;;;5142612;27;20039;-79
2021/12/13 02:42:01;;;;;;;15.57;9.90;;;11.10;99.90;;;;;;5124757;27;20489;-80
2021/12/13 02:44:36;;;;;;;14.23;10.13;;;11.00;99.90;;;;;;5127174;27;20686;-80
2021/12/13 02:47:08;;;;;;;15.30;9.95;;;11.10;99.90;;;;;;5124388;27;20115;-80
2021/12/13 02:49:33;;;;;;;15.43;10.32;;;11.10;99.90;;;;;;5141819;27;20107;-80
2021/12/13 02:52:03;;;;;;;17.30;10.13;;;11.00;99.90;;;;;;5142711;27;20051;-81
2021/12/13 02:54:35;;;;;;;17.20;10.52;;;11.10;99.90;;;;;;5123449;27;20585;-83
2021/12/13 02:57:07;;;;;;;20.07;10.30;;;11.10;99.90;;;;;;5142003;27;20103;-81
2021/12/13 02:59:35;;;;;;;20.90;12.75;;;11.10;99.90;;;;;;5141735;27;20061;-83
2021/12/13 03:02:15;;;;;;;21.67;12.88;;;11.10;99.90;;;;;;5142027;27;20051;-82
2021/12/13 03:04:41;;;;;;;23.55;13.40;;;11.10;99.90;;;;;;5142488;27;20055;-81
2021/12/13 03:07:07;;;;;;;16.92;11.32;;;11.10;99.90;;;;;;5142212;27;20046;-81
2021/12/13 03:09:34;;;;;;;18.85;11.82;;;11.00;99.90;;;;;;5122703;27;20122;-81
2021/12/13 03:12:02;;;;;;;18.73;11.00;;;11.10;99.90;;;;;;5124626;27;20043;-81
2021/12/13 03:14:31;;;;;;;24.90;10.95;;;11.10;99.90;;;;;;5124321;27;20058;-81
2021/12/13 03:16:59;;;;;;;18.95;10.70;;;10.60;99.90;;;;;;5142842;27;20100;-80
2021/12/13 03:19:40;;;;;;;15.13;9.50;;;11.00;99.90;;;;;;5150583;27;20124;-81
2021/12/13 03:22:29;;;;;;;15.43;10.20;;;11.00;99.90;;;;;;5146922;27;20162;-80
2021/12/13 03:25:04;;;;;;;17.45;9.85;;;11.00;99.90;;;;;;5126686;27;20779;-80
2021/12/13 03:28:01;;;;;;;14.45;9.75;;;11.00;99.90;;;;;;5123682;27;20509;-79
2021/12/13 03:30:33;;;;;;;16.65;9.15;;;10.90;99.90;;;;;;5122849;27;20098;-79
2021/12/13 03:33:06;;;;;;;12.93;9.30;;;10.90;99.90;;;;;;5141293;27;20047;-79
2021/12/13 03:35:41;;;;;;;19.20;9.10;;;10.90;99.90;;;;;;5141135;27;20516;-79
2021/12/13 03:38:11;;;;;;;14.73;8.10;;;10.90;99.90;;;;;;5140654;27;20054;-78
2021/12/13 03:40:37;;;;;;;19.15;8.23;;;10.90;99.90;;;;;;5122294;27;20047;-78
2021/12/13 03:43:13;;;;;;;15.52;7.72;;;10.90;99.90;;;;;;5141175;27;20379;-77
2021/12/13 03:45:48;;;;;;;14.85;7.65;;;10.90;99.90;;;;;;5122070;27;20061;-77
2021/12/13 03:48:15;;;;;;;18.67;7.72;;;10.90;99.90;;;;;;5129926;27;20046;-77
2021/12/13 03:50:46;;;;;;;14.10;7.90;;;10.90;99.90;;;;;;5124165;27;20053;-76
2021/12/13 03:53:21;;;;;;;12.10;6.40;;;10.60;99.90;;;;;;5144600;27;20049;-77
2021/12/13 03:55:50;;;;;;;10.63;6.32;;;10.80;99.90;;;;;;5132125;27;20038;-78
2021/12/13 03:58:19;;;;;;;14.48;6.95;;;10.80;99.90;;;;;;5127175;27;20046;-77
2021/12/13 04:01:06;;;;;;;13.18;6.78;;;10.80;99.90;;;;;;5139611;27;20161;-77
2021/12/13 04:03:33;;;;;;;13.23;6.93;;;10.90;99.90;;;;;;5145037;27;20039;-76
2021/12/13 04:05:59;;;;;;;11.63;6.10;;;10.80;99.90;;;;;;5139450;27;20049;-76
2021/12/13 04:08:27;;;;;;;10.45;6.05;;;10.80;99.90;;;;;;5140506;27;20604;-76
2021/12/13 04:10:59;;;;;;;9.90;5.78;;;10.80;99.90;;;;;;5141667;27;20070;-76
2021/12/13 04:13:29;;;;;;;8.77;5.27;;;10.70;99.90;;;;;;5121417;27;20050;-76
2021/12/13 04:16:09;;;;;;;9.15;5.95;;;10.80;99.90;;;;;;5140729;27;20051;-76
2021/12/13 04:21:42;;;;;;;15.63;5.45;;;10.70;99.90;;;;;;5129857;27;20051;-76
2021/12/13 04:24:15;;;;;;;8.32;4.97;;;10.70;99.90;;;;;;5140343;27;20047;-76
2021/12/13 04:26:50;;;;;;;6.78;4.57;;;10.70;99.90;;;;;;5139878;27;20050;-76
2021/12/13 04:29:24;;;;;;;10.95;4.50;;;10.70;99.90;;;;;;5142932;27;20062;-75
2021/12/13 04:31:51;;;;;;;8.55;3.83;;;10.70;99.90;;;;;;5121939;27;20094;-76
2021/12/13 04:34:19;;;;;;;6.20;3.47;;;10.70;99.90;;;;;;5121246;27;20050;-76
2021/12/13 04:36:48;;;;;;;5.60;3.90;;;10.60;99.90;;;;;;5139828;27;20039;-75
2021/12/13 04:39:21;;;;;;;9.82;4.05;;;10.70;99.90;;;;;;5139575;27;20497;-76
2021/12/13 04:41:54;;;;;;;7.50;3.85;;;10.60;99.90;;;;;;5120590;27;20503;-75
2021/12/13 04:44:34;;;;;;;11.18;5.72;;;10.50;99.90;;;;;;5139537;27;20478;-75
2021/12/13 04:47:09;;;;;;;6.38;3.92;;;10.50;99.90;;;;;;5120845;27;20508;-75
2021/12/13 04:49:39;;;;;;;10.50;4.10;;;10.50;99.90;;;;;;5139229;27;20069;-75
2021/12/13 04:52:09;;;;;;;6.63;3.88;;;10.50;99.90;;;;;;5139563;27;20121;-75
2021/12/13 04:54:39;;;;;;;6.22;3.90;;;10.50;99.90;;;;;;5121363;27;20074;-75
2021/12/13 04:57:05;;;;;;;9.73;5.03;;;10.50;99.90;;;;;;5132433;27;20058;-75
2021/12/13 04:59:31;;;;;;;7.55;3.75;;;10.50;99.90;;;;;;5113895;27;20130;-75
2021/12/13 05:02:01;;;;;;;7.53;3.85;;;10.50;99.90;;;;;;5125377;27;20046;-74
2021/12/13 05:04:29;;;;;;;4.85;3.33;;;10.40;99.90;;;;;;5132727;27;20105;-75
2021/12/13 05:06:56;;;;;;;8.68;4.43;;;10.40;99.90;;;;;;5132816;27;20061;-75
2021/12/13 05:09:24;;;;;;;9.73;3.70;;;10.30;99.90;;;;;;5138919;27;20166;-75
2021/12/13 05:11:51;;;;;;;10.68;4.72;;;10.30;99.90;;;;;;5140031;27;20135;-75
2021/12/13 05:14:32;;;;;;;5.55;4.53;;;10.30;99.90;;;;;;5140002;27;20636;-75
2021/12/13 05:17:05;;;;;;;8.13;4.95;;;10.30;99.90;;;;;;5121866;27;20062;-75
2021/12/13 05:19:34;;;;;;;9.02;4.53;;;10.30;99.90;;;;;;5144046;27;20046;-75
2021/12/13 05:22:02;;;;;;;12.25;4.90;;;10.30;99.90;;;;;;5125011;27;20755;-75
2021/12/13 05:24:32;;;;;;;7.13;4.25;;;10.30;99.90;;;;;;5133796;27;20085;-75
2021/12/13 05:27:11;;;;;;;5.47;4.53;;;10.30;99.90;;;;;;5131096;27;20683;-75
2021/12/13 05:29:41;;;;;;;7.65;5.00;;;10.30;99.90;;;;;;5144161;27;20494;-75
2021/12/13 05:32:10;;;;;;;6.45;4.35;;;10.40;99.90;;;;;;5144278;27;20147;-75
2021/12/13 05:34:48;;;;;;;10.65;5.47;;;10.30;99.90;;;;;;5143760;27;20042;-75
2021/12/13 05:37:16;;;;;;;8.82;5.60;;;10.30;99.90;;;;;;5143482;27;20477;-75
2021/12/13 05:39:59;;;;;;;6.25;5.10;;;10.40;99.90;;;;;;5147963;27;20046;-75
2021/12/13 05:42:39;;;;;;;7.97;4.95;;;10.30;99.90;;;;;;5119385;27;20062;-75
2021/12/13 05:45:08;;;;;;;7.65;4.60;;;10.30;99.90;;;;;;5139707;27;20124;-75
2021/12/13 05:47:35;;;;;;;7.72;4.88;;;10.30;99.90;;;;;;5124183;27;20054;-75
2021/12/13 05:50:01;;;;;;;7.15;4.80;;;10.30;99.90;;;;;;5122927;27;20118;-75
2021/12/13 05:52:38;;;;;;;7.32;5.68;;;10.30;99.90;;;;;;5141169;27;20070;-75
2021/12/13 05:55:12;;;;;;;10.82;5.35;;;10.30;99.90;;;;;;5142246;27;20050;-75
2021/12/13 05:57:44;;;;;;;6.80;5.15;;;10.30;99.90;;;;;;5149113;27;20065;-75
2021/12/13 06:00:19;;;;;;;10.60;5.13;;;10.30;99.90;;;;;;5122764;27;20050;-75
2021/12/13 06:03:02;;;;;;;8.70;4.70;;;10.30;99.90;;;;;;5147637;27;20046;-75
2021/12/13 06:05:37;;;;;;;9.65;5.25;;;10.30;99.90;;;;;;5140585;27;20190;-76
2021/12/13 06:08:28;;;;;;;11.40;5.80;;;10.30;99.90;;;;;;5142813;27;20050;-75
2021/12/13 06:11:11;;;;;;;7.00;5.03;;;10.20;99.90;;;;;;5130155;27;20055;-75
2021/12/13 06:13:43;;;;;;;9.02;6.07;;;10.30;99.90;;;;;;5136491;27;20053;-75
2021/12/13 06:16:13;;;;;;;9.00;4.30;;;10.30;99.90;;;;;;5123417;27;20101;-75
2021/12/13 06:18:43;;;;;;;13.93;6.03;;;10.20;99.90;;;;;;5124235;27;20057;-75
2021/12/13 06:21:27;;;;;;;7.80;4.68;;;10.30;99.90;;;;;;5141460;27;20141;-75
2021/12/13 06:23:53;;;;;;;10.93;5.45;;;10.20;99.90;;;;;;5123910;27;20051;-75
2021/12/13 06:26:27;;;;;;;7.75;5.00;;;10.30;99.90;;;;;;5141876;27;20054;-76
2021/12/13 06:28:57;;;;;;;9.00;4.75;;;10.30;99.90;;;;;;5142392;27;20039;-76
2021/12/13 06:31:33;;;;;;;11.15;5.93;;;10.20;99.90;;;;;;5144167;27;20654;-76
2021/12/13 06:34:03;;;;;;;9.93;5.97;;;10.20;99.90;;;;;;5141404;27;20072;-76
2021/12/13 06:36:32;;;;;;;9.88;5.25;;;10.20;99.90;;;;;;5141610;27;20117;-76
2021/12/13 06:39:03;;;;;;;8.05;5.65;;;10.20;99.90;;;;;;5123225;27;20161;-76
2021/12/13 06:41:29;;;;;;;8.18;5.97;;;10.20;99.90;;;;;;5140898;27;20050;-76
2021/12/13 06:43:59;;;;;;;9.10;5.43;;;10.20;99.90;;;;;;5122967;27;20058;-76
2021/12/13 06:46:35;;;;;;;8.43;5.97;;;10.20;99.90;;;;;;5122472;27;20935;-76
2021/12/13 06:49:28;;;;;;;9.48;5.60;;;10.30;99.90;;;;;;5122335;27;20045;-77
2021/12/13 06:51:59;;;;;;;13.07;5.32;;;10.20;99.90;;;;;;5141778;27;20133;-77
2021/12/13 06:54:25;;;;;;;13.48;6.13;;;10.20;99.90;;;;;;5122439;27;20054;-77
2021/12/13 06:56:59;;;;;;;7.68;5.65;;;10.20;99.90;;;;;;5122884;27;20054;-77
2021/12/13 06:59:26;;;;;;;13.90;5.53;;;10.20;99.90;;;;;;5122194;27;20047;-76
2021/12/13 07:01:59;;;;;;;12.85;6.15;;;10.20;99.90;;;;;;5145450;27;20576;-77
2021/12/13 07:04:25;;;;;;;10.52;6.20;;;10.20;99.90;;;;;;5134882;27;20857;-75
2021/12/13 07:06:51;;;;;;;14.95;5.78;;;10.20;99.90;;;;;;5141459;27;20034;-74
2021/12/13 07:09:21;;;;;;;7.78;5.88;;;10.20;99.90;;;;;;5140544;27;20062;-74
2021/12/13 07:11:54;;;;;;;8.95;5.97;;;10.20;99.90;;;;;;5116124;27;20065;-74
2021/12/13 07:14:36;;;;;;;10.85;6.03;;;10.20;99.90;;;;;;5132114;27;20133;-75
2021/12/13 07:17:17;;;;;;;10.68;6.25;;;10.20;99.90;;;;;;5119323;27;20046;-74
2021/12/13 07:19:46;;;;;;;12.13;6.70;;;10.20;99.90;;;;;;5120057;27;20046;-76
2021/12/13 07:22:17;;;;;;;9.45;6.50;;;10.20;99.90;;;;;;5139483;27;20057;-75
2021/12/13 07:24:50;;;;;;;13.00;5.88;;;10.20;99.90;;;;;;5138721;27;20058;-75
2021/12/13 07:27:18;;;;;;;10.75;6.60;;;10.20;99.90;;;;;;5138985;27;20110;-75
2021/12/13 07:29:57;;;;;;;13.75;7.38;;;10.20;99.90;;;;;;5138848;27;20046;-76
2021/12/13 07:32:29;;;;;;;11.25;6.60;;;10.20;99.90;;;;;;5140983;27;20047;-75
2021/12/13 07:35:04;;;;;;;10.25;6.70;;;10.20;99.90;;;;;;5120259;27;20046;-75
2021/12/13 07:37:36;;;;;;;16.33;7.13;;;10.20;99.90;;;;;;5137856;27;20756;-76
2021/12/13 07:40:21;;;;;;;12.95;7.88;;;10.20;99.90;;;;;;5117675;27;20054;-76
2021/12/13 07:43:02;;;;;;;9.90;6.85;;;10.20;99.90;;;;;;5137177;27;20581;-76
2021/12/13 07:46:06;;;;;;;11.30;7.28;;;10.20;99.90;;;;;;5117776;27;20591;-75
2021/12/13 07:48:41;;;;;;;10.68;7.30;;;10.20;99.90;;;;;;5114066;27;20059;-73
2021/12/13 07:51:15;;;;;;;10.27;7.38;;;10.20;99.90;;;;;;5117811;27;20057;-73
2021/12/13 07:53:48;;;;;;;16.60;8.70;;;10.20;99.90;;;;;;5119497;27;20062;-76
2021/12/13 07:56:45;;;;;;;11.27;9.30;;;10.20;99.90;;;;;;5119308;27;20157;-77
2021/12/13 07:59:32;;;;;;;14.43;8.85;;;10.20;99.90;;;;;;5136119;27;20054;-77
2021/12/13 08:02:09;;;;;;;10.95;9.43;;;10.20;99.90;;;;;;5142664;27;20049;-76
2021/12/13 08:05:09;;;;;;;11.48;8.55;;;10.20;99.90;;;;;;5138016;27;20102;-76
2021/12/13 08:07:44;;;;;;;15.15;9.73;;;10.20;99.90;;;;;;5118916;27;20191;-76
2021/12/13 08:10:31;;;;;;;17.67;9.63;;;10.00;99.90;;;;;;5115497;27;20058;-76
2021/12/13 08:13:18;;;;;;;13.43;9.85;;;10.20;99.90;;;;;;5117023;27;20124;-76
2021/12/13 08:15:48;;;;;;;13.75;9.80;;;10.20;99.90;;;;;;5115953;27;20051;-78
2021/12/13 08:18:26;;;;;;;17.42;9.15;;;10.20;99.90;;;;;;5118122;27;20189;-76
2021/12/13 08:20:54;;;;;;;14.68;9.95;;;10.20;99.90;;;;;;5108181;27;20051;-77
2021/12/13 08:23:28;;;;;;;15.70;10.48;;;10.20;99.90;;;;;;5115946;27;20441;-77
2021/12/13 08:25:58;;;;;;;14.77;10.20;;;10.20;99.90;;;;;;5119027;27;20149;-77
2021/12/13 08:28:39;;;;;;;20.13;11.60;;;10.20;99.90;;;;;;5118092;27;20451;-77
2021/12/13 08:31:08;;;;;;;18.55;11.00;;;10.20;99.90;;;;;;5119513;27;20043;-76
2021/12/13 08:33:43;;;;;;;14.48;11.05;;;10.20;99.90;;;;;;5118687;27;20047;-72
2021/12/13 08:36:15;;;;;;;14.27;10.60;;;10.20;99.90;;;;;;5119705;27;20146;-72
2021/12/13 08:38:48;;;;;;;20.10;12.73;;;10.20;99.90;;;;;;5117985;27;20130;-76
2021/12/13 08:41:39;;;;;;;21.38;13.25;;;10.20;99.90;;;;;;5118900;27;20783;-75
2021/12/13 08:44:14;;;;;;;18.90;12.25;;;10.30;99.90;;;;;;5114065;27;20042;-76
2021/12/13 08:46:43;;;;;;;20.30;12.40;;;10.20;99.90;;;;;;5115980;27;20073;-75
2021/12/13 08:49:37;;;;;;;20.67;12.05;;;10.30;99.90;;;;;;5116077;27;20606;-75
2021/12/13 08:52:21;;;;;;;20.08;13.07;;;10.30;99.90;;;;;;5114106;27;20063;-75
2021/12/13 08:54:59;;;;;;;20.42;13.10;;;10.30;99.90;;;;;;5116350;27;20051;-75
2021/12/13 08:57:53;;;;;;;19.42;13.20;;;10.30;99.90;;;;;;5116649;27;20230;-75
2021/12/13 09:00:42;;;;;;;19.50;13.48;;;10.30;99.90;;;;;;5112643;27;20901;-75
2021/12/13 09:03:20;;;;;;;21.30;13.93;;;10.30;99.90;;;;;;5113464;27;20071;-75
2021/12/13 09:06:04;;;;;;;20.75;13.57;;;10.30;99.90;;;;;;5117909;27;20763;-75
2021/12/13 09:08:33;;;;;;;19.58;13.45;;;10.30;99.90;;;;;;5116675;28;20161;-75
2021/12/13 09:11:16;;;;;;;22.98;14.57;;;10.30;99.90;;;;;;5118429;27;20448;-75
2021/12/13 09:13:57;;;;;;;20.92;13.93;;;10.40;99.90;;;;;;5119487;27;20055;-75
2021/12/13 09:16:39;;;;;;;18.67;13.57;;;10.30;99.90;;;;;;5118874;27;20039;-74
2021/12/13 09:19:37;;;;;;;22.20;15.13;;;10.30;99.90;;;;;;5118410;28;20134;-75
2021/12/13 09:22:09;;;;;;;25.10;14.65;;;10.40;99.90;;;;;;5097828;28;20288;-75
2021/12/13 09:24:47;;;;;;;18.83;14.02;;;10.40;99.90;;;;;;5119724;27;20039;-75
2021/12/13 09:27:38;;;;;;;21.50;13.25;;;10.40;99.90;;;;;;5117859;28;20072;-74
2021/12/13 09:30:20;;;;;;;22.50;12.63;;;10.40;99.90;;;;;;5113275;28;20070;-74
2021/12/13 09:33:11;;;;;;;22.55;13.60;;;10.40;99.90;;;;;;5119541;27;20054;-74
2021/12/13 09:35:38;;;;;;;21.45;14.10;;;10.50;99.90;;;;;;5118662;27;20398;-75
2021/12/13 09:38:31;;;;;;;20.27;14.90;;;10.50;99.90;;;;;;5117985;27;20679;-74
2021/12/13 09:41:07;;;;;;;18.98;13.15;;;10.50;99.90;;;;;;5118754;28;20509;-75
2021/12/13 09:43:46;;;;;;;17.58;12.63;;;10.50;99.90;;;;;;5118517;27;20099;-75
2021/12/13 09:46:14;;;;;;;23.80;13.25;;;10.60;99.90;;;;;;5117523;28;20079;-74
2021/12/13 09:48:48;;;;;;;18.17;12.93;;;10.60;99.90;;;;;;5112693;28;20413;-74
2021/12/13 09:51:51;;;;;;;17.75;11.82;;;10.60;99.90;;;;;;5118353;27;20158;-74
2021/12/13 09:54:22;;;;;;;23.33;13.60;;;10.60;99.90;;;;;;5118874;27;20039;-74
2021/12/13 09:56:50;;;;;;;15.73;11.63;;;10.60;99.90;;;;;;5118251;27;20494;-74
2021/12/13 09:59:36;;;;;;;18.65;12.25;;;10.60;99.90;;;;;;5117639;27;20059;-74
2021/12/13 10:02:15;;;;;;;20.25;12.63;;;10.60;99.90;;;;;;5117411;27;20057;-74
2021/12/13 10:04:42;;;;;;;19.35;12.55;;;10.70;99.90;;;;;;5120367;27;20051;-74
2021/12/13 10:07:14;;;;;;;20.33;12.90;;;10.60;99.90;;;;;;5122155;27;20125;-74
2021/12/13 10:09:47;;;;;;;19.10;10.93;;;10.70;99.90;;;;;;5120673;27;20055;-74
2021/12/13 10:12:19;;;;;;;15.40;11.40;;;10.70;99.90;;;;;;5121949;27;20796;-74
2021/12/13 10:15:19;;;;;;;17.38;12.00;;;10.70;99.90;;;;;;5122502;27;20039;-74
2021/12/13 10:17:48;;;;;;;16.65;11.05;;;10.70;99.90;;;;;;5114092;27;20051;-74
2021/12/13 10:20:25;;;;;;;18.20;10.98;;;10.70;99.90;;;;;;5121461;27;20775;-75
2021/12/13 10:22:51;;;;;;;17.10;10.98;;;10.70;99.90;;;;;;5122300;27;20694;-75
2021/12/13 10:25:33;;;;;;;19.85;12.23;;;10.70;99.90;;;;;;5121827;27;20463;-74
2021/12/13 10:28:00;;;;;;;16.95;11.07;;;10.80;99.90;;;;;;5121805;27;20043;-74
2021/12/13 10:30:34;;;;;;;15.80;10.73;;;10.80;99.90;;;;;;5121693;27;20660;-74
2021/12/13 10:33:02;;;;;;;18.00;11.27;;;10.80;99.90;;;;;;5113130;27;20086;-75
2021/12/13 10:35:32;;;;;;;16.73;9.73;;;10.70;99.90;;;;;;5122137;27;20086;-74
2021/12/13 10:38:04;;;;;;;20.58;9.82;;;10.80;99.90;;;;;;5116188;27;20044;-72
2021/12/13 10:40:36;;;;;;;15.85;10.02;;;10.70;99.90;;;;;;5120806;27;20055;-74
2021/12/13 10:43:25;;;;;;;17.67;10.82;;;10.80;99.90;;;;;;5119161;27;20046;-74
2021/12/13 10:46:02;;;;;;;18.08;10.30;;;10.70;99.90;;;;;;5120716;27;20797;-74
2021/12/13 10:48:32;;;;;;;15.55;10.98;;;10.80;99.90;;;;;;5118285;27;20588;-74
2021/12/13 10:51:05;;;;;;;18.92;11.93;;;10.80;99.90;;;;;;5121376;27;20054;-74
2021/12/13 10:53:32;;;;;;;14.40;10.35;;;10.90;99.90;;;;;;5113977;27;20186;-74
2021/12/13 10:56:07;;;;;;;15.23;10.13;;;10.90;99.90;;;;;;5119990;27;20073;-74
2021/12/13 10:58:36;;;;;;;17.98;10.32;;;10.90;99.90;;;;;;5121320;27;20057;-74
2021/12/13 11:01:28;;;;;;;13.68;9.57;;;11.00;99.90;;;;;;5120778;27;20087;-74
2021/12/13 11:03:56;;;;;;;17.10;9.82;;;11.00;99.90;;;;;;5118938;27;20043;-74
2021/12/13 11:06:23;;;;;;;12.50;9.27;;;11.00;99.90;;;;;;5119883;27;20055;-73
2021/12/13 11:08:50;;;;;;;14.23;9.82;;;11.10;99.90;;;;;;5126795;27;20872;-73
2021/12/13 11:11:30;;;;;;;15.85;9.57;;;11.10;99.90;;;;;;5141381;27;20046;-73
2021/12/13 11:13:59;;;;;;;13.40;9.93;;;11.10;99.90;;;;;;5122676;27;20213;-74
2021/12/13 11:16:34;;;;;;;16.20;10.75;;;11.10;99.90;;;;;;5141010;27;20241;-74
2021/12/13 11:19:00;;;;;;;15.00;9.80;;;11.10;99.90;;;;;;5141643;27;20085;-74
2021/12/13 11:21:32;;;;;;;14.95;9.77;;;11.20;99.90;;;;;;5115699;27;20111;-74
2021/12/13 11:23:57;;;;;;;14.52;9.82;;;11.10;99.90;;;;;;5116105;27;20053;-74
2021/12/13 11:26:29;;;;;;;15.20;8.80;;;11.20;99.90;;;;;;5141211;27;20047;-74
2021/12/13 11:28:55;;;;;;;13.57;9.77;;;11.20;99.90;;;;;;5134196;27;20118;-74
2021/12/13 11:31:30;;;;;;;13.35;8.55;;;11.20;99.90;;;;;;5141647;27;20266;-74
2021/12/13 11:34:03;;;;;;;12.32;8.40;;;11.20;99.90;;;;;;5122392;27;20054;-74
2021/12/13 11:36:31;;;;;;;11.18;9.23;;;11.20;99.90;;;;;;5121597;27;20122;-74
2021/12/13 11:39:18;;;;;;;11.73;9.88;;;11.20;99.90;;;;;;5141035;27;20119;-74
2021/12/13 11:42:20;;;;;;;14.18;9.48;;;11.20;99.90;;;;;;5141072;27;20126;-74
2021/12/13 11:45:05;;;;;;;15.20;9.85;;;11.20;99.90;;;;;;5121832;27;20053;-75
2021/12/13 11:47:40;;;;;;;18.58;10.05;;;11.20;99.90;;;;;;5140848;27;20070;-75
2021/12/13 11:50:46;;;;;;;14.75;10.18;;;11.20;99.90;;;;;;5122071;27;20046;-75
2021/12/13 11:53:30;;;;;;;12.93;10.15;;;11.30;99.90;;;;;;5122449;27;20060;-74
2021/12/13 11:56:36;;;;;;;14.23;9.00;;;11.30;99.90;;;;;;5122953;27;20794;-75
2021/12/13 11:59:44;;;;;;;16.75;9.40;;;11.30;99.90;;;;;;5121673;27;20047;-74
2021/12/13 12:02:32;;;;;;;15.07;8.80;;;11.30;99.90;;;;;;5143649;27;20043;-74
2021/12/13 12:05:28;;;;;;;12.55;8.63;;;11.30;99.90;;;;;;5139895;27;20464;-75
2021/12/13 12:08:45;;;;;;;13.65;10.00;;;11.30;99.90;;;;;;5140529;27;20690;-74
2021/12/13 12:11:38;;;;;;;11.93;8.48;;;11.30;99.90;;;;;;5104649;27;20055;-74
2021/12/13 12:14:10;;;;;;;15.95;9.05;;;11.30;99.90;;;;;;5122678;27;20058;-74
2021/12/13 12:16:42;;;;;;;11.32;8.68;;;11.30;99.90;;;;;;5122265;27;20042;-75
2021/12/13 12:19:15;;;;;;;16.70;9.13;;;11.30;99.90;;;;;;5140552;27;20054;-74
2021/12/13 12:21:46;;;;;;;13.43;9.47;;;11.30;99.90;;;;;;5140680;27;20089;-74
2021/12/13 12:24:16;;;;;;;14.50;9.05;;;11.40;99.90;;;;;;5141255;27;20038;-74
2021/12/13 12:26:45;;;;;;;16.23;10.43;;;11.40;99.90;;;;;;5139645;27;20043;-74
2021/12/13 12:29:17;;;;;;;14.95;10.52;;;11.40;99.90;;;;;;5122068;27;20605;-74
2021/12/13 12:31:46;;;;;;;11.13;8.88;;;11.40;99.90;;;;;;5140389;27;20505;-74
2021/12/13 12:34:13;;;;;;;17.20;8.98;;;11.50;99.90;;;;;;5139964;27;20050;-74
2021/12/13 12:37:05;;;;;;;14.65;9.00;;;11.50;99.90;;;;;;5121594;27;20058;-74
2021/12/13 12:39:47;;;;;;;15.40;10.13;;;11.60;99.90;;;;;;5139324;27;20054;-74
2021/12/13 12:42:34;;;;;;;11.97;10.00;;;11.60;99.90;;;;;;5140523;27;20093;-73
2021/12/13 12:45:15;;;;;;;14.55;9.35;;;11.60;99.90;;;;;;5139939;27;20782;-74
2021/12/13 12:47:46;;;;;;;14.25;9.48;;;11.60;99.90;;;;;;5139762;27;20042;-74
2021/12/13 12:50:19;;;;;;;18.30;10.15;;;11.50;99.90;;;;;;5140460;27;20077;-73
2021/12/13 12:52:56;;;;;;;13.95;9.68;;;11.50;99.90;;;;;;5139481;27;20055;-73
2021/12/13 12:55:33;;;;;;;16.55;10.20;;;11.40;99.90;;;;;;5139622;27;20051;-73
2021/12/13 12:58:05;;;;;;;15.02;9.52;;;11.70;99.90;;;;;;5139784;27;20055;-73
2021/12/13 13:00:30;;;;;;;13.40;10.00;;;11.50;99.90;;;;;;5139286;27;20049;-73
2021/12/13 13:02:56;;;;;;;18.77;9.40;;;11.40;99.90;;;;;;5139601;27;20732;-73
2021/12/13 13:05:27;;;;;;;17.67;10.38;;;11.40;99.90;;;;;;5139828;27;20161;-73
2021/12/13 13:07:53;;;;;;;15.23;9.98;;;11.30;99.90;;;;;;5139045;27;20054;-73
2021/12/13 13:10:28;;;;;;;17.08;10.65;;;11.30;99.90;;;;;;5139674;27;20103;-74
2021/12/13 13:13:11;;;;;;;18.65;11.25;;;11.20;99.90;;;;;;5120831;27;20792;-74
2021/12/13 13:15:55;;;;;;;18.17;11.75;;;11.10;99.90;;;;;;5132641;27;20050;-75
2021/12/13 13:18:25;;;;;;;15.60;11.85;;;11.00;99.90;;;;;;5135803;27;20099;-75
2021/12/13 13:21:03;;;;;;;19.40;12.43;;;11.00;99.90;;;;;;5139932;27;20050;-75
2021/12/13 13:23:40;;;;;;;17.20;11.32;;;11.00;99.90;;;;;;5139385;27;20688;-75
2021/12/13 13:26:07;;;;;;;15.98;11.25;;;10.90;99.90;;;;;;5140084;27;20301;-76
2021/12/13 13:28:46;;;;;;;20.92;11.60;;;10.80;99.90;;;;;;5139111;27;20942;-76